Time;durP1;ratioP1;P1;durP2;ratioP2;P2;SDS_P1;SDS_P2;PMS_P1;PMS_P2;Temp;Humidity;BMP_temperature;BMP_pressure;BME280_temperature;BME280_humidity;BME280_pressure;Samples;Min_cycle;Max_cycle;Signal;HPM_P1;HPM_P2
2021/07/23 00:00:32;;;;;;;26.15;12.32;;;;;;;17.42;80.11;101446.63;5095019;28;20016;-82
2021/07/23 00:02:58;;;;;;;27.80;12.63;;;;;;;17.42;79.96;101437.53;5095206;28;20384;-83
2021/07/23 00:05:23;;;;;;;33.53;12.73;;;;;;;17.42;80.16;101448.56;5095713;28;20024;-83
2021/07/23 00:07:48;;;;;;;26.00;12.70;;;;;;;17.40;80.43;101445.28;5095127;28;20020;-83
2021/07/23 00:10:14;;;;;;;28.08;13.43;;;;;;;17.41;80.38;101445.00;5091039;28;20028;-83
2021/07/23 00:12:39;;;;;;;31.25;13.38;;;;;;;17.42;80.44;101448.56;5088959;28;20031;-83
2021/07/23 00:15:05;;;;;;;28.15;13.23;;;;;;;17.39;80.31;101443.66;5096020;28;20077;-84
2021/07/23 00:17:31;;;;;;;31.30;14.70;;;;;;;17.36;80.61;101444.28;5076975;28;20369;-83
2021/07/23 00:19:56;;;;;;;26.30;12.45;;;;;;;17.34;80.48;101452.03;5094440;28;20020;-82
2021/07/23 00:22:21;;;;;;;29.50;13.40;;;;;;;17.30;80.13;101457.34;5091588;28;20028;-84
2021/07/23 00:24:47;;;;;;;34.00;13.55;;;;;;;17.27;80.41;101453.25;5095557;28;20023;-83
2021/07/23 00:27:14;;;;;;;27.60;12.40;;;;;;;17.23;80.48;101449.44;5093094;28;20035;-83
2021/07/23 00:29:40;;;;;;;27.77;13.50;;;;;;;17.19;80.31;101453.94;5089509;28;20052;-84
2021/07/23 00:32:05;;;;;;;36.15;13.52;;;;;;;17.15;80.43;101450.13;5089578;28;20024;-83
2021/07/23 00:34:31;;;;;;;30.23;14.27;;;;;;;17.13;80.35;101457.88;5095428;28;20024;-83
2021/07/23 00:36:56;;;;;;;31.00;14.35;;;;;;;17.12;80.34;101452.69;5088008;28;20453;-83
2021/07/23 00:39:22;;;;;;;30.10;14.23;;;;;;;17.09;80.29;101457.66;5085795;28;20029;-84
2021/07/23 00:41:47;;;;;;;31.52;14.63;;;;;;;17.08;80.27;101460.75;5093266;28;20022;-83
2021/07/23 00:44:12;;;;;;;35.90;15.43;;;;;;;17.03;80.17;101458.06;5094228;28;20047;-83
2021/07/23 00:46:38;;;;;;;33.10;14.95;;;;;;;17.00;80.07;101461.44;5091151;28;20027;-84
2021/07/23 00:49:03;;;;;;;27.27;13.90;;;;;;;16.97;80.13;101459.25;5093426;28;20392;-83
2021/07/23 00:51:28;;;;;;;30.17;13.95;;;;;;;16.96;80.26;101463.13;5090883;28;20036;-83
2021/07/23 00:53:54;;;;;;;28.30;14.05;;;;;;;16.96;80.30;101463.13;5084838;28;20028;-83
2021/07/23 00:56:19;;;;;;;37.63;15.32;;;;;;;16.91;80.18;101457.69;5094912;28;20028;-83
2021/07/23 00:58:45;;;;;;;32.97;14.80;;;;;;;16.85;80.13;101463.28;5092272;28;20050;-83
2021/07/23 01:01:10;;;;;;;29.30;14.60;;;;;;;16.82;80.17;101466.66;5077142;28;20035;-83
2021/07/23 01:03:36;;;;;;;31.17;15.82;;;;;;;16.79;80.17;101458.19;5073907;28;20027;-84
2021/07/23 01:06:02;;;;;;;32.47;14.35;;;;;;;16.76;80.17;101470.56;5093434;28;20028;-84
2021/07/23 01:08:27;;;;;;;33.13;14.43;;;;;;;16.72;80.11;101469.53;5089260;28;20035;-82
2021/07/23 01:10:53;;;;;;;31.90;14.90;;;;;;;16.69;80.18;101470.13;5090981;28;20028;-83
2021/07/23 01:13:18;;;;;;;32.10;14.63;;;;;;;16.65;80.05;101461.66;5092429;28;20024;-83
2021/07/23 01:15:43;;;;;;;30.70;15.23;;;;;;;16.64;80.31;101467.44;5093220;28;20027;-81
2021/07/23 01:18:09;;;;;;;31.23;14.40;;;;;;;16.61;80.14;101463.38;5090972;28;20024;-82
2021/07/23 01:20:34;;;;;;;36.38;14.20;;;;;;;16.59;80.22;101475.81;5075276;28;20086;-81
2021/07/23 01:23:01;;;;;;;28.23;14.65;;;;;;;16.54;80.16;101479.44;5071706;28;20090;-82
2021/07/23 01:25:27;;;;;;;32.45;14.93;;;;;;;16.53;80.18;101483.31;5087049;28;20032;-82
2021/07/23 01:27:54;;;;;;;28.13;13.93;;;;;;;16.51;80.10;101481.97;5092861;28;20440;-81
2021/07/23 01:30:24;;;;;;;32.75;15.18;;;;;;;16.48;80.16;101474.28;5090285;28;20556;-82
2021/07/23 01:32:50;;;;;;;32.10;14.93;;;;;;;16.48;80.23;101483.38;5087967;28;20044;-82
2021/07/23 01:35:15;;;;;;;29.17;14.68;;;;;;;16.49;80.24;101481.44;5087441;28;20417;-83
2021/07/23 01:37:41;;;;;;;32.35;14.75;;;;;;;16.49;80.26;101484.19;5091039;28;20093;-82
2021/07/23 01:40:07;;;;;;;28.95;14.88;;;;;;;16.51;80.27;101487.47;5092974;28;20028;-82
2021/07/23 01:42:32;;;;;;;30.77;14.57;;;;;;;16.51;80.32;101480.03;5092117;28;20562;-81
2021/07/23 01:44:57;;;;;;;31.95;14.15;;;;;;;16.52;80.42;101491.84;5075786;28;20036;-82
2021/07/23 01:47:23;;;;;;;37.15;15.55;;;;;;;16.55;80.37;101499.53;5090919;28;20073;-82
2021/07/23 01:49:49;;;;;;;35.45;14.80;;;;;;;16.56;80.40;101490.13;5092142;28;20032;-82
2021/07/23 01:52:15;;;;;;;33.22;14.70;;;;;;;16.60;80.60;101488.44;5092347;28;20390;-81
2021/07/23 01:54:41;;;;;;;30.25;14.82;;;;;;;16.60;80.40;101482.94;5092166;28;20028;-81
2021/07/23 01:57:07;;;;;;;37.60;15.48;;;;;;;16.59;80.43;101487.63;5090003;28;20024;-82
2021/07/23 01:59:32;;;;;;;28.27;13.30;;;;;;;16.61;80.37;101490.06;5076946;28;20381;-82
2021/07/23 02:01:58;;;;;;;33.17;15.38;;;;;;;16.59;80.49;101486.81;5072066;28;20032;-82
2021/07/23 02:04:24;;;;;;;32.35;14.88;;;;;;;16.59;80.47;101486.81;5090572;28;20462;-81
2021/07/23 02:06:49;;;;;;;32.28;14.77;;;;;;;16.60;80.62;101488.44;5091056;28;20362;-81
2021/07/23 02:09:15;;;;;;;29.35;13.50;;;;;;;16.60;80.39;101488.44;5080701;28;20024;-82
2021/07/23 02:11:40;;;;;;;35.42;16.48;;;;;;;16.60;80.51;101492.00;5093998;28;20020;-82
2021/07/23 02:14:07;;;;;;;29.60;14.77;;;;;;;16.59;80.43;101490.38;5092628;28;20107;-81
2021/07/23 02:16:36;;;;;;;32.80;13.88;;;;;;;16.59;80.36;101484.06;5093764;28;20466;-81
2021/07/23 02:19:02;;;;;;;26.13;13.60;;;;;;;16.58;80.32;101485.16;5080463;28;20415;-82
2021/07/23 02:21:27;;;;;;;27.48;13.82;;;;;;;16.54;80.44;101487.69;5092123;28;20073;-82
2021/07/23 02:23:53;;;;;;;27.73;14.75;;;;;;;16.52;80.26;101487.16;5091197;28;20016;-82
2021/07/23 02:26:18;;;;;;;30.25;13.63;;;;;;;16.52;80.46;101489.91;5093311;28;20039;-82
2021/07/23 02:28:44;;;;;;;31.05;13.70;;;;;;;16.54;80.39;101492.38;5083532;28;20027;-82
2021/07/23 02:31:10;;;;;;;27.83;15.68;;;;;;;16.55;80.27;101488.50;5093076;28;20031;-82
2021/07/23 02:33:35;;;;;;;26.77;14.23;;;;;;;16.56;80.35;101492.88;5092005;28;20020;-82
2021/07/23 02:36:00;;;;;;;27.55;14.68;;;;;;;16.57;80.13;101494.53;5079082;28;20036;-82
2021/07/23 02:38:26;;;;;;;34.20;14.88;;;;;;;16.60;80.13;101493.94;5088987;28;20058;-82
2021/07/23 02:40:54;;;;;;;23.88;12.38;;;;;;;16.61;79.97;101490.06;5093202;28;20028;-82
2021/07/23 02:43:20;;;;;;;26.73;13.05;;;;;;;16.62;79.80;101497.22;5089966;28;20039;-82
2021/07/23 02:45:45;;;;;;;30.13;14.25;;;;;;;16.65;79.75;101497.44;5093432;28;20028;-83
2021/07/23 02:48:10;;;;;;;31.10;14.57;;;;;;;16.68;79.59;101490.53;5083930;28;20020;-82
2021/07/23 02:50:36;;;;;;;28.55;13.77;;;;;;;16.70;79.50;101499.31;5084862;28;20073;-82
2021/07/23 02:53:03;;;;;;;27.67;13.52;;;;;;;16.73;79.54;101490.44;5092137;28;20031;-82
2021/07/23 02:55:28;;;;;;;28.35;13.18;;;;;;;16.75;79.38;101495.66;5091853;28;20047;-83
2021/07/23 02:57:53;;;;;;;25.85;12.48;;;;;;;16.76;79.37;101478.03;5084001;28;20034;-82
2021/07/23 03:00:19;;;;;;;24.40;12.40;;;;;;;16.76;79.38;101492.59;5091587;28;20077;-82
2021/07/23 03:02:44;;;;;;;24.83;13.52;;;;;;;16.77;79.18;101499.78;5091970;28;20023;-80
2021/07/23 03:05:10;;;;;;;27.75;12.93;;;;;;;16.78;79.17;101495.09;5091608;28;20024;-82
2021/07/23 03:07:36;;;;;;;24.05;12.25;;;;;;;16.80;79.03;101510.19;5079030;28;20027;-81
2021/07/23 03:10:01;;;;;;;22.88;11.15;;;;;;;16.81;79.06;101500.81;5085491;28;20028;-82
2021/07/23 03:12:26;;;;;;;30.17;12.82;;;;;;;16.82;78.88;101513.47;5090727;28;20458;-82
2021/07/23 03:14:52;;;;;;;22.75;11.25;;;;;;;16.83;78.82;101514.28;5092983;28;20477;-82
2021/07/23 03:17:17;;;;;;;25.13;11.52;;;;;;;16.84;78.66;101522.25;5089652;28;20073;-82
2021/07/23 03:19:43;;;;;;;20.80;11.05;;;;;;;16.86;78.60;101517.28;5081709;28;20020;-82
2021/07/23 03:22:08;;;;;;;20.60;10.35;;;;;;;16.88;78.67;101513.41;5079618;28;20082;-84
2021/07/23 03:24:34;;;;;;;24.88;10.32;;;;;;;16.87;78.50;101504.31;5090934;28;20024;-82
2021/07/23 03:26:59;;;;;;;21.85;10.13;;;;;;;16.86;78.39;101514.53;5092921;28;20107;-81
2021/07/23 03:29:25;;;;;;;19.33;10.18;;;;;;;16.86;78.29;101511.78;5081745;28;20030;-82
2021/07/23 03:31:50;;;;;;;25.40;12.13;;;;;;;16.85;78.21;101509.28;5077682;28;20036;-82
2021/07/23 03:34:16;;;;;;;19.65;10.50;;;;;;;16.83;78.05;101520.63;5087800;28;20024;-82
2021/07/23 03:36:41;;;;;;;21.35;10.88;;;;;;;16.81;77.98;101522.84;5071538;28;20021;-83
2021/07/23 03:39:06;;;;;;;22.60;11.07;;;;;;;16.82;77.88;101526.41;5085718;28;20051;-81
2021/07/23 03:41:32;;;;;;;22.17;10.15;;;;;;;16.81;77.78;101522.84;5088922;28;20534;-83
2021/07/23 03:43:58;;;;;;;21.98;10.13;;;;;;;16.83;77.80;101514.28;5090882;28;20056;-83
2021/07/23 03:46:24;;;;;;;21.55;11.18;;;;;;;16.86;77.35;101519.22;5084602;28;20094;-82
2021/07/23 03:48:53;;;;;;;20.80;10.20;;;;;;;16.88;77.56;101516.16;5085056;28;20090;-82
2021/07/23 03:51:18;;;;;;;23.52;10.18;;;;;;;16.90;77.40;101517.50;5083562;28;20024;-82
2021/07/23 03:53:43;;;;;;;20.33;10.15;;;;;;;16.91;77.32;101510.03;5089973;28;20453;-82
2021/07/23 03:56:10;;;;;;;20.90;10.55;;;;;;;16.91;77.18;101515.53;5096254;28;20024;-83
2021/07/23 03:58:36;;;;;;;19.45;10.00;;;;;;;16.90;77.15;101508.41;5094281;28;20389;-82
2021/07/23 04:01:05;;;;;;;21.67;11.32;;;;;;;16.89;77.13;101506.75;5087801;28;20400;-82
2021/07/23 04:03:31;;;;;;;16.77;10.40;;;;;;;16.93;76.92;101507.81;5091308;28;20028;-82
2021/07/23 04:05:56;;;;;;;23.95;11.35;;;;;;;16.97;76.28;101509.69;5082129;28;20138;-83
2021/07/23 04:08:22;;;;;;;24.95;10.30;;;;;;;17.00;76.55;101505.50;5085831;28;20043;-82
2021/07/23 04:10:47;;;;;;;19.15;10.48;;;;;;;17.03;76.36;101505.72;5071574;28;20024;-83
2021/07/23 04:13:13;;;;;;;27.67;11.80;;;;;;;17.06;76.22;101501.53;5086670;28;20035;-82
2021/07/23 04:15:38;;;;;;;21.02;11.05;;;;;;;17.09;76.08;101500.94;5088888;28;20032;-82
2021/07/23 04:18:03;;;;;;;22.38;11.00;;;;;;;17.13;75.94;101501.16;5091713;28;20393;-83
2021/07/23 04:20:30;;;;;;;22.95;10.07;;;;;;;17.16;75.50;101497.78;5088537;28;20032;-83
2021/07/23 04:22:56;;;;;;;20.02;10.75;;;;;;;17.21;75.42;101490.25;5089421;28;20027;-82
2021/07/23 04:25:21;;;;;;;18.65;9.50;;;;;;;17.27;75.30;101491.00;5092458;28;20055;-82
2021/07/23 04:27:46;;;;;;;21.42;10.80;;;;;;;17.31;75.24;101498.34;5090153;28;20028;-81
2021/07/23 04:30:12;;;;;;;20.98;10.23;;;;;;;17.38;75.01;101497.13;5070026;28;20109;-81
2021/07/23 04:32:38;;;;;;;23.35;11.93;;;;;;;17.41;74.88;101494.63;5088418;28;20027;-82
2021/07/23 04:35:04;;;;;;;20.30;11.02;;;;;;;17.44;74.76;101505.03;5092023;28;20024;-84
2021/07/23 04:37:29;;;;;;;21.30;11.02;;;;;;;17.46;74.64;101505.56;5094015;28;20063;-84
2021/07/23 04:39:54;;;;;;;21.65;11.05;;;;;;;17.50;74.43;101505.75;5083958;28;20039;-84
2021/07/23 04:42:20;;;;;;;17.85;10.63;;;;;;;17.51;74.44;101507.38;5093404;28;20020;-83
2021/07/23 04:44:45;;;;;;;18.58;10.38;;;;;;;17.51;74.03;101512.91;5088657;28;20037;-83
2021/07/23 04:47:10;;;;;;;21.95;12.73;;;;;;;17.50;73.95;101505.75;5093747;28;20366;-83
2021/07/23 04:49:36;;;;;;;23.67;12.45;;;;;;;17.50;73.92;101511.28;5081257;28;20054;-83
2021/07/23 04:52:02;;;;;;;22.48;11.77;;;;;;;17.46;73.93;101508.31;5087995;28;20078;-82
2021/07/23 04:54:28;;;;;;;25.08;11.88;;;;;;;17.44;73.79;101516.06;5088677;28;20020;-83
2021/07/23 04:56:54;;;;;;;23.23;11.15;;;;;;;17.44;73.88;101518.00;5095045;28;20389;-82
2021/07/23 04:59:20;;;;;;;24.23;11.55;;;;;;;17.43;73.78;101513.59;5083364;28;20033;-83
2021/07/23 05:01:45;;;;;;;22.48;11.10;;;;;;;17.44;73.75;101513.31;5073950;28;20030;-84
2021/07/23 05:04:11;;;;;;;21.45;10.68;;;;;;;17.47;73.48;101517.41;5087317;28;20043;-83
2021/07/23 05:06:38;;;;;;;24.73;12.05;;;;;;;17.50;73.39;101501.06;5093738;28;20028;-83
2021/07/23 05:09:04;;;;;;;23.10;11.43;;;;;;;17.53;73.34;101494.13;5088989;28;20023;-83
2021/07/23 05:11:29;;;;;;;22.02;11.82;;;;;;;17.60;73.18;101507.53;5094182;28;20081;-83
2021/07/23 05:13:55;;;;;;;21.38;11.80;;;;;;;17.64;72.80;101505.78;5093373;28;20427;-83
2021/07/23 05:16:20;;;;;;;19.95;10.02;;;;;;;17.65;72.66;101507.41;5094750;28;20034;-84
2021/07/23 05:18:45;;;;;;;21.40;11.18;;;;;;;17.67;72.25;101500.47;5066868;28;20027;-83
2021/07/23 05:21:11;;;;;;;21.95;12.23;;;;;;;17.70;72.43;101499.84;5074921;28;20016;-82
2021/07/23 05:23:39;;;;;;;17.98;10.30;;;;;;;17.70;72.19;101499.84;5091744;28;20016;-82
2021/07/23 05:26:05;;;;;;;16.40;10.45;;;;;;;17.71;72.15;101501.50;5093519;28;20024;-83
2021/07/23 05:28:32;;;;;;;23.38;11.07;;;;;;;17.74;71.80;101508.34;5092375;28;20058;-83
2021/07/23 05:30:57;;;;;;;22.02;12.20;;;;;;;17.76;72.01;101508.88;5090174;28;20031;-84
2021/07/23 05:33:23;;;;;;;18.80;10.80;;;;;;;17.79;71.97;101511.06;5088662;28;20028;-83
2021/07/23 05:35:48;;;;;;;19.77;11.85;;;;;;;17.79;71.83;101510.22;5086345;28;20032;-83
2021/07/23 05:38:14;;;;;;;23.45;12.10;;;;;;;17.84;71.81;101510.13;5085607;28;20100;-82
2021/07/23 05:40:40;;;;;;;18.63;11.75;;;;;;;17.90;71.75;101514.44;5086230;28;20446;-83
2021/07/23 05:43:05;;;;;;;22.17;12.68;;;;;;;17.92;71.67;101513.00;5090009;28;20450;-83
2021/07/23 05:45:31;;;;;;;19.65;11.63;;;;;;;17.94;71.82;101521.78;5086559;28;20031;-82
2021/07/23 05:47:56;;;;;;;23.52;12.23;;;;;;;18.01;71.82;101518.63;5090805;28;20476;-83
2021/07/23 05:50:23;;;;;;;23.52;11.82;;;;;;;18.05;71.70;101516.88;5092646;28;20036;-84
2021/07/23 05:52:48;;;;;;;19.40;10.98;;;;;;;18.13;71.76;101515.34;5086936;28;20028;-81
2021/07/23 05:55:13;;;;;;;21.25;11.82;;;;;;;18.15;71.46;101516.69;5091652;28;20035;-82
2021/07/23 05:57:39;;;;;;;19.48;12.02;;;;;;;18.14;71.62;101515.06;5093922;28;20129;-81
2021/07/23 06:00:06;;;;;;;26.85;13.75;;;;;;;18.13;71.33;101516.16;5091491;28;20531;-82
2021/07/23 06:02:31;;;;;;;22.70;12.05;;;;;;;18.15;71.27;101522.19;5089234;28;20028;-82
2021/07/23 06:04:57;;;;;;;24.20;13.85;;;;;;;18.22;71.19;101523.72;5087514;28;20074;-81
2021/07/23 06:07:22;;;;;;;22.38;11.85;;;;;;;18.29;71.05;101524.13;5093116;28;20049;-82
2021/07/23 06:09:47;;;;;;;18.85;12.02;;;;;;;18.31;70.94;101516.38;5091850;28;20024;-83
2021/07/23 06:12:13;;;;;;;20.48;12.15;;;;;;;18.35;70.89;101525.66;5089569;28;20024;-84
2021/07/23 06:14:38;;;;;;;26.80;12.48;;;;;;;18.39;70.70;101515.66;5091661;28;20024;-79
2021/07/23 06:17:04;;;;;;;21.02;13.30;;;;;;;18.41;70.71;101522.50;5085156;28;20028;-79
2021/07/23 06:19:29;;;;;;;25.27;12.50;;;;;;;18.43;70.77;101530.47;5087444;28;20427;-80
2021/07/23 06:21:55;;;;;;;24.77;12.65;;;;;;;18.50;70.91;101524.53;5090698;28;20462;-79
2021/07/23 06:24:20;;;;;;;23.27;12.75;;;;;;;18.55;70.71;101536.28;5087248;28;20028;-79
2021/07/23 06:26:46;;;;;;;25.52;12.70;;;;;;;18.62;70.43;101533.09;5090495;28;20016;-81
2021/07/23 06:29:11;;;;;;;25.75;13.20;;;;;;;18.72;70.56;101532.06;5089373;28;20080;-78
2021/07/23 06:31:36;;;;;;;21.67;11.80;;;;;;;18.84;70.16;101544.22;5093428;28;20024;-79
2021/07/23 06:34:02;;;;;;;23.13;12.20;;;;;;;18.94;70.13;101540.41;5090825;28;20072;-80
2021/07/23 06:36:28;;;;;;;20.63;11.07;;;;;;;19.03;69.61;101540.47;5090955;28;20035;-81
2021/07/23 06:38:53;;;;;;;20.55;11.52;;;;;;;19.12;69.72;101546.88;5089134;28;20089;-81
2021/07/23 06:41:18;;;;;;;20.75;11.60;;;;;;;19.21;69.36;101545.00;5079666;28;20469;-80
2021/07/23 06:43:44;;;;;;;20.58;10.38;;;;;;;19.28;69.12;101553.66;5067938;28;20040;-81
2021/07/23 06:46:09;;;;;;;21.23;12.32;;;;;;;19.37;68.88;101544.63;5087412;28;20027;-82
2021/07/23 06:48:36;;;;;;;23.48;11.68;;;;;;;19.41;68.60;101546.44;5089544;28;20380;-80
2021/07/23 06:51:03;;;;;;;22.08;11.95;;;;;;;19.46;68.22;101546.31;5090766;28;20016;-80
2021/07/23 06:53:29;;;;;;;21.40;12.13;;;;;;;19.57;68.08;101551.59;5087215;28;20020;-79
2021/07/23 06:55:54;;;;;;;20.05;11.25;;;;;;;19.65;67.90;101543.34;5091943;28;20089;-80
2021/07/23 06:58:20;;;;;;;20.52;10.77;;;;;;;19.76;67.40;101549.47;5080678;28;20482;-82
2021/07/23 07:00:45;;;;;;;19.65;11.90;;;;;;;19.86;67.39;101548.34;5088723;28;20038;-80
2021/07/23 07:03:11;;;;;;;19.98;10.88;;;;;;;19.94;66.80;101548.41;5067176;28;20032;-81
2021/07/23 07:05:36;;;;;;;16.90;9.93;;;;;;;20.06;66.87;101550.56;5069248;28;20036;-80
2021/07/23 07:08:01;;;;;;;16.10;10.70;;;;;;;20.18;66.54;101553.53;5091008;28;20028;-80
2021/07/23 07:10:27;;;;;;;20.80;10.60;;;;;;;20.27;65.94;101555.50;5091403;28;20020;-82
2021/07/23 07:12:59;;;;;;;17.23;10.52;;;;;;;20.29;65.81;101548.53;5087124;28;20083;-81
2021/07/23 07:15:25;;;;;;;;;;;;;;;20.35;65.95;101555.56;5089386;28;20031;-80
2021/07/23 07:17:56;;;;;;;17.33;10.98;;;;;;;20.32;65.70;101553.41;5087954;28;19912;-81
2021/07/23 07:20:22;;;;;;;17.90;10.55;;;;;;;20.22;66.06;101542.66;5089317;28;20040;-81
2021/07/23 07:22:48;;;;;;;18.38;11.45;;;;;;;20.12;65.82;101548.47;5088248;28;20024;-84
2021/07/23 07:25:14;;;;;;;19.60;10.38;;;;;;;20.00;66.19;101548.25;5093915;28;20412;-80
2021/07/23 07:27:39;;;;;;;22.85;11.43;;;;;;;19.93;66.05;101546.75;5088800;28;20178;-79
2021/07/23 07:30:05;;;;;;;23.75;11.50;;;;;;;19.86;66.37;101554.72;5092169;28;20028;-79
2021/07/23 07:32:30;;;;;;;19.92;11.63;;;;;;;19.80;66.41;101557.94;5087593;28;20016;-79
2021/07/23 07:34:56;;;;;;;20.95;11.50;;;;;;;19.86;66.64;101557.50;5088255;28;20035;-79
2021/07/23 07:37:21;;;;;;;19.92;10.85;;;;;;;19.90;66.57;101564.00;5095611;28;20020;-80
2021/07/23 07:39:47;;;;;;;19.75;10.70;;;;;;;19.96;66.41;101561.91;5087886;28;20027;-79
2021/07/23 07:42:15;;;;;;;18.65;10.38;;;;;;;20.08;65.94;101553.00;5093379;28;20032;-80
2021/07/23 07:44:40;;;;;;;17.83;10.13;;;;;;;20.15;66.17;101570.78;5072999;28;20024;-80
2021/07/23 07:47:07;;;;;;;21.17;11.20;;;;;;;20.24;65.96;101562.50;5091678;28;20124;-80
2021/07/23 07:49:32;;;;;;;23.15;11.02;;;;;;;20.29;65.68;101561.56;5089934;28;20016;-80
2021/07/23 07:51:58;;;;;;;19.30;10.10;;;;;;;20.26;65.35;101565.78;5092144;28;20492;-79
2021/07/23 07:54:23;;;;;;;18.25;10.13;;;;;;;20.25;65.21;101558.63;5092963;28;20028;-80
2021/07/23 07:56:51;;;;;;;18.48;9.50;;;;;;;20.18;65.46;101566.56;5092172;28;20035;-80
2021/07/23 07:59:16;;;;;;;17.63;9.05;;;;;;;20.13;65.65;101573.09;5091361;28;20027;-80
2021/07/23 08:01:42;;;;;;;17.55;9.43;;;;;;;20.17;65.42;101565.75;5087876;28;20036;-79
2021/07/23 08:04:07;;;;;;;19.23;10.82;;;;;;;20.07;65.44;101566.03;5092935;28;20035;-80
2021/07/23 08:06:35;;;;;;;17.63;9.85;;;;;;;20.01;65.77;101563.75;5095819;28;20461;-79
2021/07/23 08:09:08;;;;;;;19.98;10.50;;;;;;;20.03;65.59;101558.72;5072700;28;20020;-80
2021/07/23 08:11:37;;;;;;;16.88;9.77;;;;;;;20.05;65.75;101559.19;5088895;28;20024;-76
2021/07/23 08:14:02;;;;;;;17.15;10.05;;;;;;;20.10;65.69;101553.50;5091838;28;20103;-85
2021/07/23 08:16:29;;;;;;;17.35;10.32;;;;;;;20.10;65.52;101565.38;5092966;28;20047;-86
2021/07/23 08:18:54;;;;;;;21.38;10.57;;;;;;;20.15;65.90;101575.53;5093422;28;20024;-87
2021/07/23 08:21:20;;;;;;;18.00;9.63;;;;;;;20.15;65.76;101576.31;5087864;28;20027;-86
2021/07/23 08:23:45;;;;;;;18.10;9.60;;;;;;;20.17;65.65;101578.78;5091533;28;20081;-85
2021/07/23 08:26:11;;;;;;;19.63;9.65;;;;;;;20.13;65.25;101577.78;5091848;28;20031;-85
2021/07/23 08:28:36;;;;;;;18.13;10.23;;;;;;;20.01;65.54;101581.16;5083658;28;20033;-85
2021/07/23 08:31:02;;;;;;;14.43;9.45;;;;;;;20.02;65.71;101581.97;5086536;28;20083;-85
2021/07/23 08:33:28;;;;;;;20.02;9.70;;;;;;;20.09;65.74;101576.81;5091644;28;20016;-85
2021/07/23 08:35:53;;;;;;;16.92;8.65;;;;;;;20.19;65.38;101584.84;5094394;28;20385;-83
2021/07/23 08:38:19;;;;;;;16.17;8.95;;;;;;;20.22;65.08;101584.19;5079212;28;20024;-84
2021/07/23 08:40:44;;;;;;;15.90;9.02;;;;;;;20.25;64.90;101593.81;5091024;28;20024;-83
2021/07/23 08:43:10;;;;;;;16.60;9.18;;;;;;;20.21;64.80;101590.03;5089621;28;20062;-83
2021/07/23 08:45:36;;;;;;;16.15;9.07;;;;;;;20.18;65.11;101591.50;5088135;28;20024;-83
2021/07/23 08:48:04;;;;;;;14.07;8.65;;;;;;;20.25;65.16;101589.09;5091232;28;20032;-84
2021/07/23 08:50:29;;;;;;;16.70;9.40;;;;;;;20.36;65.11;101587.66;5085497;28;20073;-82
2021/07/23 08:52:55;;;;;;;16.15;9.10;;;;;;;20.52;64.66;101588.03;5094672;28;20028;-84
2021/07/23 08:55:20;;;;;;;15.65;9.00;;;;;;;20.51;64.40;101582.81;5084498;28;20024;-82
2021/07/23 08:57:46;;;;;;;16.80;8.50;;;;;;;20.50;64.25;101586.72;5094314;28;20028;-81
2021/07/23 09:00:12;;;;;;;14.43;8.85;;;;;;;20.48;64.35;101583.44;5081821;28;20426;-81
2021/07/23 09:02:57;;;;;;;13.95;8.65;;;;;;;20.35;64.55;101580.50;5082833;28;20036;-80
2021/07/23 09:05:25;;;;;;;16.50;8.48;;;;;;;20.38;64.52;101585.38;5090683;28;20032;-81
2021/07/23 09:07:51;;;;;;;17.10;9.05;;;;;;;20.39;64.50;101587.00;5094185;28;20192;-81
2021/07/23 09:10:27;;;;;;;16.77;8.88;;;;;;;20.42;64.84;101590.28;5091943;28;20092;-81
2021/07/23 09:12:53;;;;;;;16.55;8.40;;;;;;;20.43;64.41;101586.38;5090137;28;20066;-81
2021/07/23 09:15:22;;;;;;;16.77;9.40;;;;;;;20.42;64.57;101584.75;5093915;28;20029;-80
2021/07/23 09:17:47;;;;;;;18.08;8.60;;;;;;;20.62;64.43;101589.69;5093101;28;20020;-80
2021/07/23 09:20:13;;;;;;;17.83;8.93;;;;;;;20.63;64.13;101585.81;5093478;28;20020;-80
2021/07/23 09:22:58;;;;;;;14.20;8.70;;;;;;;20.60;63.79;101590.03;5091200;28;20082;-81
2021/07/23 09:25:44;;;;;;;15.20;9.50;;;;;;;20.75;63.84;101588.75;5088522;28;20484;-81
2021/07/23 09:28:26;;;;;;;16.05;9.32;;;;;;;20.89;63.21;101593.34;5087429;28;20082;-80
2021/07/23 09:30:52;;;;;;;;;;;;;;;20.94;63.48;101594.00;5087319;28;20096;-81
2021/07/23 09:33:28;;;;;;;18.42;9.35;;;;;;;20.91;63.14;101591.06;5081419;28;20365;-80
2021/07/23 09:36:04;;;;;;;13.90;8.90;;;;;;;21.01;63.15;101588.00;5090165;28;20039;-81
2021/07/23 09:38:42;;;;;;;15.38;8.30;;;;;;;21.14;62.89;101587.00;5087268;28;20032;-79
2021/07/23 09:41:10;;;;;;;12.95;8.93;;;;;;;21.19;62.66;101595.16;5078842;28;20032;-80
2021/07/23 09:43:45;;;;;;;14.48;8.38;;;;;;;21.17;62.69;101589.13;5071023;28;20135;-80
2021/07/23 09:46:16;;;;;;;15.80;9.07;;;;;;;21.23;62.40;101593.38;5087008;28;20050;-80
2021/07/23 09:48:45;;;;;;;18.43;8.37;;;;;;;21.21;62.19;101600.38;5082466;28;20103;-80
2021/07/23 09:51:10;;;;;;;20.60;9.40;;;;;;;21.31;62.14;101600.06;5075354;28;20281;-80
2021/07/23 09:53:36;;;;;;;17.65;8.48;;;;;;;21.46;62.03;101601.53;5082854;28;20028;-81
2021/07/23 09:56:05;;;;;;;18.10;9.10;;;;;;;21.54;61.77;101605.44;5083277;28;20089;-81
2021/07/23 09:58:30;;;;;;;14.50;9.07;;;;;;;21.64;61.86;101603.16;5086031;28;20145;-80
2021/07/23 10:00:56;;;;;;;18.70;9.18;;;;;;;21.67;61.66;101605.25;5085750;28;20485;-82
2021/07/23 10:03:23;;;;;;;14.65;9.35;;;;;;;21.81;61.49;101598.72;5081875;28;20032;-81
2021/07/23 10:05:51;;;;;;;16.38;10.00;;;;;;;21.90;60.92;101605.03;5090418;28;20031;-80
2021/07/23 10:08:21;;;;;;;13.07;8.63;;;;;;;21.97;60.73;101608.13;5070953;28;20031;-81
2021/07/23 10:10:50;;;;;;;12.23;8.77;;;;;;;21.87;60.49;101611.25;5083872;28;20023;-80
2021/07/23 10:13:17;;;;;;;19.20;8.77;;;;;;;21.81;60.47;101612.59;5055784;28;20016;-79
2021/07/23 10:15:42;;;;;;;19.52;9.43;;;;;;;21.85;60.55;101616.31;5072646;28;20045;-79
2021/07/23 10:18:08;;;;;;;17.90;9.55;;;;;;;21.84;60.50;101609.97;5084965;28;20025;-80
2021/07/23 10:20:33;;;;;;;19.40;8.45;;;;;;;21.91;60.13;101612.25;5072840;28;20384;-80
2021/07/23 10:22:59;;;;;;;16.42;8.73;;;;;;;22.00;60.18;101604.69;5087131;28;20389;-80
2021/07/23 10:25:25;;;;;;;17.45;9.93;;;;;;;22.14;59.45;101599.72;5086256;28;20028;-80
2021/07/23 10:27:50;;;;;;;17.95;9.43;;;;;;;22.22;59.02;101600.88;5073515;28;20020;-82
2021/07/23 10:30:32;;;;;;;16.98;9.15;;;;;;;22.22;59.10;101597.28;5083520;28;20051;-80
2021/07/23 10:32:58;;;;;;;;;;;;;;;22.33;59.32;101606.88;5087900;28;20043;-80
2021/07/23 10:35:23;;;;;;;18.13;9.48;;;;;;;22.43;58.73;101602.94;5090391;28;19912;-80
2021/07/23 10:37:50;;;;;;;17.67;10.13;;;;;;;22.40;58.53;101601.63;5089708;28;20105;-81
2021/07/23 10:40:16;;;;;;;16.52;8.85;;;;;;;22.31;58.38;101601.66;5076286;28;20492;-80
2021/07/23 10:42:42;;;;;;;13.90;8.90;;;;;;;22.26;58.73;101606.56;5083943;28;20481;-81
2021/07/23 10:45:41;;;;;;;13.35;7.97;;;;;;;22.26;58.61;101612.13;5087028;28;20034;-81
2021/07/23 10:48:06;;;;;;;15.00;8.90;;;;;;;22.34;58.75;101606.56;5081235;28;20047;-80
2021/07/23 10:50:41;;;;;;;15.68;8.32;;;;;;;22.51;58.24;101613.19;5087533;28;20020;-81
2021/07/23 10:53:24;;;;;;;14.02;7.95;;;;;;;22.46;58.44;101614.19;5081221;28;20192;-80
2021/07/23 10:55:50;;;;;;;15.13;8.45;;;;;;;22.56;58.41;101605.47;5091064;28;20080;-81
2021/07/23 10:58:18;;;;;;;15.13;7.65;;;;;;;22.68;58.07;101606.69;5076363;28;20393;-81
2021/07/23 11:00:51;;;;;;;16.27;8.63;;;;;;;22.85;57.81;101609.38;5083269;28;20035;-81
2021/07/23 11:03:39;;;;;;;16.60;8.75;;;;;;;22.98;57.28;101601.94;5087618;28;20055;-80
2021/07/23 11:06:23;;;;;;;16.30;8.38;;;;;;;23.00;57.16;101602.44;5082409;28;20040;-81
2021/07/23 11:08:52;;;;;;;11.05;6.95;;;;;;;23.04;56.94;101601.41;5090577;28;20103;-81